createdAt,value
2022-08-16T00:01:40.680Z,54.72
2022-08-16T00:04:10.277Z,55.17
2022-08-16T00:06:39.877Z,55.51
2022-08-16T00:09:07.994Z,55.92
2022-08-16T00:14:10.629Z,56.87
2022-08-16T00:17:01.436Z,57.33
2022-08-16T00:19:41.507Z,57.89
2022-08-16T00:22:13.508Z,58.89
2022-08-16T00:24:44.812Z,58.82
2022-08-16T00:27:14.759Z,59.87
2022-08-16T00:29:42.952Z,59.94
2022-08-16T00:32:18.244Z,60.79
2022-08-16T00:34:52.748Z,60.42
2022-08-16T00:37:56.586Z,60.92
2022-08-16T00:40:33.684Z,61.16
2022-08-16T00:43:11.911Z,61.42
2022-08-16T00:45:58.053Z,61.14
2022-08-16T00:48:31.741Z,61.03
2022-08-16T00:51:15.986Z,61.58
2022-08-16T00:53:47.832Z,61.79
2022-08-16T00:56:57.780Z,62.73
2022-08-16T00:59:11.627Z,62.43
2022-08-16T01:01:44.685Z,62.57
2022-08-16T01:04:28.984Z,62.52
2022-08-16T01:07:02.028Z,62.46
2022-08-16T01:09:37.327Z,62.78
2022-08-16T01:12:10.599Z,63.45
2022-08-16T01:14:45.588Z,63.53
2022-08-16T01:17:19.260Z,63.66
2022-08-16T01:19:51.438Z,63.77
2022-08-16T01:22:48.372Z,64.01
2022-08-16T01:25:22.197Z,64.23
2022-08-16T01:27:55.599Z,64.97
2022-08-16T01:30:27.598Z,64.90
2022-08-16T01:33:14.000Z,65.06
2022-08-16T01:35:46.940Z,64.75
2022-08-16T01:38:25.841Z,64.51
2022-08-16T01:41:01.842Z,63.52
2022-08-16T01:43:31.995Z,63.31
2022-08-16T01:46:30.074Z,63.12
2022-08-16T01:48:54.967Z,62.75
2022-08-16T01:51:24.975Z,62.12
2022-08-16T01:53:54.515Z,62.37
2022-08-16T01:56:27.048Z,62.76
2022-08-16T01:58:57.241Z,62.39
2022-08-16T02:01:28.367Z,62.61
2022-08-16T02:03:58.627Z,62.33
2022-08-16T02:06:40.100Z,61.96
2022-08-16T02:09:17.738Z,62.24
2022-08-16T02:11:53.292Z,62.46
2022-08-16T02:14:26.552Z,62.94
2022-08-16T02:24:31.972Z,65.78
2022-08-16T02:27:02.763Z,66.11
2022-08-16T02:29:33.229Z,67.05
2022-08-16T02:32:50.776Z,67.40
2022-08-16T02:34:51.802Z,67.77
2022-08-16T02:37:24.874Z,68.66
2022-08-16T02:40:16.403Z,69.02
2022-08-16T02:42:49.665Z,69.72
2022-08-16T02:45:19.743Z,70.35
2022-08-16T02:48:00.117Z,70.68
2022-08-16T02:50:54.697Z,70.20
2022-08-16T02:53:17.985Z,70.34
2022-08-16T02:55:46.433Z,70.51
2022-08-16T02:58:20.569Z,70.37
2022-08-16T03:00:56.110Z,70.89
2022-08-16T03:03:26.444Z,70.85
2022-08-16T03:05:55.392Z,71.28
2022-08-16T03:08:50.736Z,70.94
2022-08-16T03:11:16.751Z,70.34
2022-08-16T03:13:56.619Z,70.82
2022-08-16T03:16:37.878Z,69.99
2022-08-16T03:19:07.370Z,69.77
2022-08-16T03:21:37.792Z,70.13
2022-08-16T03:24:27.514Z,70.13
2022-08-16T03:26:58.045Z,70.15
2022-08-16T03:29:30.357Z,70.48
2022-08-16T03:31:59.168Z,70.99
2022-08-16T03:34:28.409Z,70.95
2022-08-16T03:36:56.375Z,71.51
2022-08-16T03:39:25.295Z,72.35
2022-08-16T03:41:59.946Z,72.54
2022-08-16T03:44:44.734Z,72.51
2022-08-16T03:47:19.729Z,72.62
2022-08-16T03:49:51.743Z,73.17
2022-08-16T03:52:23.786Z,73.99
2022-08-16T03:54:59.396Z,73.90
2022-08-16T03:57:31.706Z,74.28
2022-08-16T04:00:36.296Z,74.70
2022-08-16T04:03:08.758Z,74.96
2022-08-16T04:05:39.666Z,75.77
2022-08-16T04:08:23.086Z,76.12
2022-08-16T04:10:53.850Z,75.79
2022-08-16T04:13:59.994Z,75.70
2022-08-16T04:16:27.341Z,76.45
2022-08-16T04:19:02.543Z,76.48
2022-08-16T04:21:32.663Z,76.42
2022-08-16T04:24:01.634Z,76.48
2022-08-16T04:26:32.232Z,75.54
2022-08-16T04:29:16.679Z,75.35
2022-08-16T04:31:56.488Z,75.24
2022-08-16T04:34:28.058Z,71.77
2022-08-16T04:37:00.979Z,68.10
2022-08-16T04:39:44.843Z,64.78
2022-08-16T04:42:16.166Z,61.85
2022-08-16T04:44:54.320Z,58.38
2022-08-16T04:47:33.343Z,57.99
2022-08-16T04:50:06.193Z,59.27
2022-08-16T04:52:36.218Z,58.20
2022-08-16T04:55:15.286Z,55.20
2022-08-16T04:57:43.869Z,51.42
2022-08-16T05:00:32.308Z,48.37
2022-08-16T05:03:07.252Z,45.94
2022-08-16T05:05:45.412Z,44.79
2022-08-16T05:08:30.793Z,44.16
2022-08-16T05:11:05.318Z,42.69
2022-08-16T05:13:41.198Z,42.87
2022-08-16T05:16:19.812Z,39.52
2022-08-16T05:18:52.172Z,37.22
2022-08-16T05:21:22.242Z,36.38
2022-08-16T05:23:55.480Z,36.73
2022-08-16T05:26:24.862Z,36.48
2022-08-16T05:28:56.985Z,37.32
2022-08-16T05:31:29.625Z,36.71
2022-08-16T05:34:01.137Z,36.45
2022-08-16T05:36:34.029Z,35.25
2022-08-16T05:39:05.729Z,34.41
2022-08-16T05:41:34.153Z,35.08
2022-08-16T05:44:22.839Z,33.04
2022-08-16T05:46:55.798Z,32.38
2022-08-16T05:49:39.861Z,35.81
2022-08-16T05:52:11.267Z,38.57
2022-08-16T05:54:46.753Z,41.33
2022-08-16T05:57:15.849Z,44.65
2022-08-16T05:59:44.029Z,44.19
2022-08-16T06:02:12.421Z,45.94
2022-08-16T06:04:44.979Z,45.94
2022-08-16T06:07:25.192Z,45.00
2022-08-16T06:09:56.240Z,45.97
2022-08-16T06:12:27.571Z,46.00
2022-08-16T06:14:59.211Z,46.66
2022-08-16T06:17:43.967Z,47.33
2022-08-16T06:20:18.419Z,46.62
2022-08-16T06:22:58.823Z,47.11
2022-08-16T06:25:36.756Z,45.48
2022-08-16T06:28:17.260Z,38.78
2022-08-16T06:30:58.862Z,34.72
2022-08-16T06:33:29.798Z,31.74
2022-08-16T06:36:11.749Z,30.79
2022-08-16T06:38:56.085Z,29.19
2022-08-16T06:41:27.387Z,28.54
2022-08-16T06:43:56.857Z,26.70
2022-08-16T06:46:31.734Z,26.82
2022-08-16T06:49:01.025Z,25.17
2022-08-16T06:51:45.806Z,26.34
2022-08-16T06:54:17.131Z,26.55
2022-08-16T06:56:45.135Z,27.24
2022-08-16T06:59:14.274Z,25.59
2022-08-16T07:01:43.299Z,26.65
2022-08-16T07:04:32.458Z,26.69
2022-08-16T07:07:03.615Z,27.49
2022-08-16T07:09:32.635Z,26.59
2022-08-16T07:12:02.924Z,24.56
2022-08-16T07:14:33.233Z,23.93
2022-08-16T07:17:02.305Z,24.04
2022-08-16T07:20:02.610Z,25.07
2022-08-16T07:22:37.344Z,24.70
2022-08-16T07:25:09.365Z,24.49
2022-08-16T07:27:38.286Z,23.90
2022-08-16T07:30:45.944Z,24.36
2022-08-16T07:33:02.336Z,23.04
2022-08-16T07:35:31.215Z,24.80
2022-08-16T07:38:01.124Z,27.21
2022-08-16T07:40:56.303Z,26.77
2022-08-16T07:43:18.317Z,26.90
2022-08-16T07:45:53.209Z,23.90
2022-08-16T07:48:22.432Z,24.34
2022-08-16T07:50:58.661Z,23.41
2022-08-16T07:53:31.670Z,24.82
2022-08-16T07:56:01.492Z,23.27
2022-08-16T07:58:36.537Z,22.27
2022-08-16T08:01:11.053Z,24.69
2022-08-16T08:03:48.365Z,25.36
2022-08-16T08:06:18.254Z,26.74
2022-08-16T08:08:50.820Z,26.95
2022-08-16T08:11:23.687Z,22.49
2022-08-16T08:13:53.826Z,22.45
2022-08-16T08:16:30.321Z,20.66
2022-08-16T08:19:02.206Z,20.47
2022-08-16T08:22:01.086Z,18.57
2022-08-16T08:24:31.611Z,19.17
2022-08-16T08:27:02.360Z,20.40
2022-08-16T08:29:37.744Z,19.26
2022-08-16T08:32:57.293Z,20.60
2022-08-16T08:35:00.359Z,19.34
2022-08-16T08:37:33.459Z,19.62
2022-08-16T08:40:24.772Z,22.41
2022-08-16T08:43:00.554Z,21.61
2022-08-16T08:45:49.174Z,23.15
2022-08-16T08:48:34.879Z,23.08
2022-08-16T08:51:05.041Z,21.08
2022-08-16T08:53:34.018Z,21.53
2022-08-16T08:56:23.241Z,20.10
2022-08-16T08:58:58.249Z,20.70
2022-08-16T09:01:31.948Z,20.34
2022-08-16T09:04:06.714Z,20.69
2022-08-16T09:06:35.553Z,19.52
2022-08-16T09:09:16.745Z,20.57
2022-08-16T09:11:53.730Z,19.60
2022-08-16T09:14:33.168Z,19.60
2022-08-16T09:17:14.068Z,25.28
2022-08-16T09:19:55.222Z,24.53
2022-08-16T09:22:25.544Z,21.21
2022-08-16T09:25:04.412Z,20.99
2022-08-16T09:27:56.467Z,22.80
2022-08-16T09:30:34.394Z,23.03
2022-08-16T09:33:12.855Z,23.58
2022-08-16T09:35:42.576Z,25.39
2022-08-16T09:38:12.569Z,24.30
2022-08-16T09:41:00.355Z,25.55
2022-08-16T09:46:33.364Z,23.64
2022-08-16T09:49:08.522Z,26.96
2022-08-16T09:51:37.506Z,27.03
2022-08-16T09:54:09.756Z,28.51
2022-08-16T09:56:52.578Z,28.33
2022-08-16T09:59:23.963Z,28.40
2022-08-16T10:01:54.531Z,29.95
2022-08-16T10:04:31.112Z,30.23
2022-08-16T10:07:14.700Z,30.75
2022-08-16T10:09:53.860Z,31.18
2022-08-16T10:12:42.435Z,27.93
2022-08-16T10:15:15.629Z,27.58
2022-08-16T10:18:00.620Z,28.32
2022-08-16T10:20:31.453Z,28.91
2022-08-16T10:23:05.868Z,28.97
2022-08-16T10:27:16.312Z,29.81
2022-08-16T10:28:28.791Z,28.73
2022-08-16T10:30:59.875Z,26.89
2022-08-16T10:33:29.714Z,24.14
2022-08-16T10:36:03.942Z,21.64
2022-08-16T10:38:37.140Z,21.90
2022-08-16T10:41:07.044Z,24.42
2022-08-16T10:43:36.291Z,26.96
2022-08-16T10:46:39.208Z,27.96
2022-08-16T10:48:56.090Z,29.66
2022-08-16T10:51:33.495Z,30.20
2022-08-16T10:54:02.943Z,30.61
2022-08-16T10:56:52.654Z,30.97
2022-08-16T10:59:46.751Z,27.97
2022-08-16T11:03:37.599Z,27.37
2022-08-16T11:05:08.792Z,28.33
2022-08-16T11:07:54.944Z,29.13
2022-08-16T11:13:57.304Z,28.33
2022-08-16T11:19:03.625Z,26.53
2022-08-16T11:21:33.402Z,27.20
2022-08-16T11:24:03.470Z,26.26
2022-08-16T11:29:41.101Z,27.58
2022-08-16T11:32:10.256Z,27.59
2022-08-16T11:35:05.780Z,24.31
2022-08-16T11:38:04.355Z,25.10
2022-08-16T11:40:16.731Z,23.44
2022-08-16T11:42:47.836Z,23.07
2022-08-16T11:45:16.427Z,23.50
2022-08-16T11:47:44.409Z,24.38
2022-08-16T11:50:14.825Z,24.38
2022-08-16T11:52:46.516Z,25.29
2022-08-16T11:55:15.263Z,24.75
2022-08-16T11:57:43.203Z,25.44
2022-08-16T12:00:33.786Z,26.46
2022-08-16T12:03:04.297Z,26.71
2022-08-16T12:05:34.330Z,26.78
2022-08-16T12:08:05.441Z,27.05
2022-08-16T12:10:35.338Z,27.39
2022-08-16T12:13:03.888Z,25.94
2022-08-16T12:15:32.151Z,26.66
2022-08-16T12:18:03.623Z,26.63
2022-08-16T12:20:35.263Z,27.76
2022-08-16T12:23:04.864Z,27.11
2022-08-16T12:25:34.859Z,26.45
2022-08-16T12:28:05.113Z,27.49
2022-08-16T12:30:39.118Z,27.11
2022-08-16T12:33:10.009Z,25.58
2022-08-16T12:35:40.806Z,25.69
2022-08-16T12:38:41.200Z,26.52
2022-08-16T12:40:58.332Z,27.26
2022-08-16T12:43:26.656Z,26.82
2022-08-16T12:46:02.023Z,26.62
2022-08-16T12:48:52.693Z,26.56
2022-08-16T12:51:32.968Z,26.77
2022-08-16T12:54:14.801Z,26.03
2022-08-16T12:56:43.464Z,25.71
2022-08-16T12:59:16.780Z,25.57
2022-08-16T13:01:48.214Z,26.26
2022-08-16T13:04:20.665Z,26.45
2022-08-16T13:06:52.268Z,26.64
2022-08-16T13:09:26.601Z,25.87
2022-08-16T13:12:03.259Z,26.35
2022-08-16T13:14:34.866Z,25.65
2022-08-16T13:17:06.836Z,25.50
2022-08-16T13:20:03.813Z,25.72
2022-08-16T13:22:26.118Z,24.97
2022-08-16T13:24:54.377Z,25.42
2022-08-16T13:28:02.115Z,25.15
2022-08-16T13:30:36.501Z,25.40
2022-08-16T13:33:00.591Z,26.37
2022-08-16T13:35:34.621Z,27.64
2022-08-16T13:38:04.460Z,27.41
2022-08-16T13:40:34.674Z,27.88
2022-08-16T13:43:03.054Z,27.82
2022-08-16T13:45:36.075Z,27.53
2022-08-16T13:48:06.716Z,29.19
2022-08-16T13:50:49.561Z,29.19
2022-08-16T13:53:24.349Z,30.00
2022-08-16T13:55:57.935Z,28.92
2022-08-16T13:58:37.367Z,28.82
2022-08-16T14:01:17.027Z,29.05
2022-08-16T14:03:45.807Z,29.51
2022-08-16T14:06:15.273Z,29.59
2022-08-16T14:08:58.926Z,30.45
2022-08-16T14:11:33.834Z,31.33
2022-08-16T14:14:05.577Z,31.00
2022-08-16T14:16:35.208Z,30.53
2022-08-16T14:19:03.917Z,30.93
2022-08-16T14:21:35.471Z,30.60
2022-08-16T14:24:12.747Z,31.35
2022-08-16T14:26:50.914Z,30.65
2022-08-16T14:29:21.464Z,29.96
2022-08-16T14:31:54.145Z,29.79
2022-08-16T14:34:25.579Z,28.59
2022-08-16T14:36:54.093Z,28.46
2022-08-16T14:39:23.565Z,28.31
2022-08-16T14:41:53.663Z,28.45
2022-08-16T14:44:26.972Z,29.56
2022-08-16T14:46:56.122Z,28.00
2022-08-16T14:49:25.312Z,29.17
2022-08-16T14:51:53.506Z,28.63
2022-08-16T14:54:27.223Z,28.39
2022-08-16T14:56:58.062Z,28.28
2022-08-16T14:59:26.486Z,29.30
2022-08-16T15:01:59.133Z,29.05
2022-08-16T15:04:36.867Z,28.31
2022-08-16T15:07:11.223Z,29.16
2022-08-16T15:09:44.799Z,28.18
2022-08-16T15:12:33.643Z,30.77
2022-08-16T15:15:12.203Z,29.77
2022-08-16T15:17:53.910Z,28.98
2022-08-16T15:20:29.608Z,28.08
2022-08-16T15:22:59.719Z,28.89
2022-08-16T15:25:33.499Z,28.64
2022-08-16T15:28:05.485Z,29.40
2022-08-16T15:30:56.979Z,29.73
2022-08-16T15:33:26.760Z,30.98
2022-08-16T15:35:57.916Z,31.05
2022-08-16T15:38:58.012Z,31.19
2022-08-16T15:41:54.294Z,32.16
2022-08-16T15:44:24.455Z,31.28
2022-08-16T15:46:56.563Z,31.34
2022-08-16T15:49:37.102Z,31.52
2022-08-16T15:52:10.516Z,31.68
2022-08-16T15:54:52.539Z,32.13
2022-08-16T15:57:24.537Z,31.40
2022-08-16T15:59:57.743Z,31.82
2022-08-16T16:02:33.886Z,32.61
2022-08-16T16:05:04.370Z,33.09
2022-08-16T16:07:33.972Z,32.60
2022-08-16T16:10:04.117Z,32.47
2022-08-16T16:12:53.593Z,33.15
2022-08-16T16:15:24.464Z,32.33
2022-08-16T16:17:53.116Z,32.28
2022-08-16T16:20:24.443Z,32.30
2022-08-16T16:22:57.964Z,31.99
2022-08-16T16:25:26.688Z,32.11
2022-08-16T16:27:59.588Z,32.86
2022-08-16T16:30:37.578Z,33.36
2022-08-16T16:33:20.585Z,33.34
2022-08-16T16:35:55.450Z,33.15
2022-08-16T16:38:30.875Z,34.25
2022-08-16T16:40:59.626Z,34.43
2022-08-16T16:43:31.995Z,34.89
2022-08-16T16:46:03.038Z,35.11
2022-08-16T16:48:51.511Z,35.51
2022-08-16T16:51:21.152Z,35.83
2022-08-16T16:53:56.305Z,35.85
2022-08-16T16:56:27.470Z,36.30
2022-08-16T16:59:01.831Z,36.79
2022-08-16T17:01:56.699Z,36.36
2022-08-16T17:04:27.436Z,36.81
2022-08-16T17:07:00.153Z,36.59
2022-08-16T17:09:28.120Z,36.99
2022-08-16T17:11:58.236Z,36.73
2022-08-16T17:14:32.945Z,37.43
2022-08-16T17:17:04.217Z,37.62
2022-08-16T17:19:32.905Z,37.73
2022-08-16T17:22:01.205Z,38.04
2022-08-16T17:24:36.959Z,38.43
2022-08-16T17:27:07.810Z,38.44
2022-08-16T17:29:45.831Z,38.26
2022-08-16T17:32:46.584Z,38.67
2022-08-16T17:35:12.287Z,39.07
2022-08-16T17:37:51.694Z,39.00
2022-08-16T17:40:47.352Z,39.30
2022-08-16T17:43:10.905Z,39.61
2022-08-16T17:45:41.468Z,40.06
2022-08-16T17:48:09.677Z,40.38
2022-08-16T17:50:38.793Z,40.27
2022-08-16T17:53:08.297Z,40.34
2022-08-16T17:55:38.436Z,40.68
2022-08-16T17:58:22.151Z,40.81
2022-08-16T18:00:56.289Z,40.81
2022-08-16T18:04:02.538Z,41.92
2022-08-16T18:06:18.982Z,42.42
2022-08-16T18:08:48.341Z,42.21
2022-08-16T18:11:19.346Z,42.64
2022-08-16T18:13:55.564Z,43.41
2022-08-16T18:16:25.812Z,43.73
2022-08-16T18:18:53.973Z,43.46
2022-08-16T18:21:40.410Z,44.33
2022-08-16T18:24:09.378Z,44.22
2022-08-16T18:26:37.867Z,44.65
2022-08-16T18:29:06.565Z,45.04
2022-08-16T18:31:36.382Z,45.87
2022-08-16T18:34:04.938Z,45.62
2022-08-16T18:36:33.735Z,46.43
2022-08-16T18:39:01.787Z,46.57
2022-08-16T18:41:30.791Z,47.50
2022-08-16T18:44:23.968Z,47.27
2022-08-16T18:46:51.998Z,47.88
2022-08-16T18:49:20.304Z,48.81
2022-08-16T18:51:48.252Z,49.33
2022-08-16T18:54:19.047Z,49.55
2022-08-16T18:56:55.305Z,49.98
2022-08-16T18:59:27.299Z,50.25
2022-08-16T19:02:00.507Z,51.23
2022-08-16T19:04:56.081Z,51.30
2022-08-16T19:07:22.430Z,51.81
2022-08-16T19:09:50.427Z,52.14
2022-08-16T19:12:47.054Z,52.79
2022-08-16T19:15:11.954Z,53.19
2022-08-16T19:17:43.207Z,53.40
2022-08-16T19:20:12.353Z,53.37
2022-08-16T19:25:47.008Z,54.28
2022-08-16T19:28:45.925Z,54.09
2022-08-16T19:31:07.731Z,53.95
2022-08-16T19:33:37.161Z,54.44
2022-08-16T19:36:06.454Z,54.64
2022-08-16T19:38:36.224Z,55.06
2022-08-16T19:41:04.248Z,55.17
2022-08-16T19:43:33.125Z,55.43
2022-08-16T19:46:01.102Z,55.51
2022-08-16T19:48:29.525Z,55.56
2022-08-16T19:50:58.849Z,56.54
2022-08-16T19:53:28.079Z,56.77
2022-08-16T19:55:55.991Z,57.12
2022-08-16T19:58:23.941Z,57.35
2022-08-16T20:00:52.440Z,57.24
2022-08-16T20:03:25.308Z,57.21
2022-08-16T20:05:53.799Z,57.43
2022-08-16T20:08:23.775Z,57.91
2022-08-16T20:10:51.833Z,58.14
2022-08-16T20:13:23.863Z,58.08
2022-08-16T20:15:52.872Z,57.89
2022-08-16T20:18:25.375Z,58.67
2022-08-16T20:20:54.506Z,58.42
2022-08-16T20:23:25.380Z,58.67
2022-08-16T20:25:55.639Z,58.93
2022-08-16T20:28:47.732Z,59.20
2022-08-16T20:31:12.394Z,59.43
2022-08-16T20:33:40.383Z,59.93
2022-08-16T20:36:08.940Z,60.00
2022-08-16T20:38:47.484Z,59.74
2022-08-16T20:41:16.446Z,59.64
2022-08-16T20:43:45.515Z,59.24
2022-08-16T20:46:14.402Z,59.35
2022-08-16T20:48:42.788Z,59.19
2022-08-16T20:51:11.605Z,59.34
2022-08-16T20:53:39.814Z,60.04
2022-08-16T20:56:11.058Z,60.42
2022-08-16T20:58:39.880Z,60.94
2022-08-16T21:01:09.861Z,61.09
2022-08-16T21:03:38.546Z,61.14
2022-08-16T21:06:06.942Z,60.85
2022-08-16T21:08:52.509Z,61.36
2022-08-16T21:11:23.648Z,61.52
2022-08-16T21:13:51.651Z,62.04
2022-08-16T21:16:28.672Z,62.29
2022-08-16T21:18:56.676Z,62.16
2022-08-16T21:21:24.617Z,62.26
2022-08-16T21:24:00.392Z,62.42
2022-08-16T21:26:30.138Z,62.50
2022-08-16T21:28:58.110Z,62.62
2022-08-16T21:31:26.626Z,62.75
2022-08-16T21:33:55.127Z,63.20
2022-08-16T21:36:35.222Z,63.44
2022-08-16T21:39:06.074Z,63.62
2022-08-16T21:41:35.998Z,63.68
2022-08-16T21:44:04.403Z,63.79
2022-08-16T21:46:33.846Z,64.34
2022-08-16T21:49:01.838Z,64.12
2022-08-16T21:51:29.769Z,64.17
2022-08-16T21:53:57.978Z,64.37
2022-08-16T21:56:26.363Z,64.41
2022-08-16T21:58:55.815Z,64.50
2022-08-16T22:01:24.959Z,64.58
2022-08-16T22:04:09.609Z,64.70
2022-08-16T22:06:43.966Z,64.82
2022-08-16T22:09:15.570Z,65.84
2022-08-16T22:11:44.218Z,65.46
2022-08-16T22:14:14.054Z,66.31
2022-08-16T22:16:43.519Z,66.45
2022-08-16T22:19:13.486Z,66.96
2022-08-16T22:21:41.838Z,66.52
2022-08-16T22:24:09.871Z,66.39
2022-08-16T22:26:42.850Z,66.52
2022-08-16T22:29:14.808Z,66.68
2022-08-16T22:31:43.517Z,66.77
2022-08-16T22:34:12.003Z,67.07
2022-08-16T22:36:40.314Z,67.54
2022-08-16T22:39:10.354Z,67.81
2022-08-16T22:41:39.906Z,68.19
2022-08-16T22:44:08.258Z,68.05
2022-08-16T22:46:38.454Z,68.52
2022-08-16T22:49:08.147Z,68.68
2022-08-16T22:51:37.805Z,68.69
2022-08-16T22:54:45.900Z,68.87
2022-08-16T22:56:56.525Z,68.79
2022-08-16T22:59:25.302Z,68.79
2022-08-16T23:01:54.886Z,68.95
2022-08-16T23:04:23.985Z,69.45
2022-08-16T23:06:52.002Z,69.50
2022-08-16T23:09:20.537Z,69.92
2022-08-16T23:11:48.907Z,70.13
2022-08-16T23:14:17.888Z,70.20
2022-08-16T23:16:47.397Z,70.45
2022-08-16T23:19:18.491Z,70.06
2022-08-16T23:21:49.359Z,70.98
2022-08-16T23:24:19.671Z,70.82
2022-08-16T23:26:49.263Z,70.97
2022-08-16T23:29:24.652Z,71.21
2022-08-16T23:31:59.078Z,71.63
2022-08-16T23:34:30.188Z,71.44
2022-08-16T23:36:58.516Z,71.03
2022-08-16T23:39:26.611Z,70.97
2022-08-16T23:41:55.645Z,71.43
2022-08-16T23:44:55.096Z,71.18
2022-08-16T23:47:12.346Z,71.68
2022-08-16T23:49:59.885Z,72.04
2022-08-16T23:52:53.509Z,72.51
2022-08-16T23:55:18.384Z,72.97
2022-08-16T23:57:47.400Z,73.24
